< Typhoon 196010 1960 Season Typhoon 196012 >
Typhoon 196011 (VIRGINIA)
General InformationTrack Information on Google Maps || NewsDisaster Info.ResourceGoogle EarthGE AnimationAtom FeedGeoJSON
Detalied Best Track (Time Zone = UTC)
Year Month Day Hour Lat. Long. Pressure (hPa) Wind (kt) Class Image Chart
1960 8 7 18 20.0 140.0 1002 0 2 -- Chart
1960 8 8 00 20.5 139.5 1004 0 2 -- Chart
1960 8 8 06 21.0 139.8 1000 0 2 -- Chart
1960 8 8 12 21.0 140.5 998 0 2 -- Chart
1960 8 8 18 21.1 141.1 995 0 2 -- Chart
1960 8 9 00 21.5 141.7 985 0 9 -- Chart
1960 8 9 06 23.2 141.3 985 0 9 -- Chart
1960 8 9 12 25.0 140.8 990 0 9 -- Chart
1960 8 9 18 26.9 139.5 990 0 9 -- Chart
1960 8 10 00 28.9 138.0 985 0 9 -- Chart
1960 8 10 06 30.8 136.4 980 0 9 -- Chart
1960 8 10 12 32.7 135.0 980 0 9 -- Chart
1960 8 10 18 33.2 134.1 980 0 9 -- Chart
1960 8 11 00 34.2 133.8 990 0 9 -- Chart
1960 8 11 06 35.2 133.7 994 0 9 -- Chart
1960 8 11 12 36.8 134.8 996 0 9 -- Chart
1960 8 11 18 38.8 136.8 996 0 9 -- Chart
1960 8 12 00 39.9 139.9 996 0 9 -- Chart
1960 8 12 06 41.4 144.9 998 0 6 -- Chart
1960 8 12 12 43.0 148.5 1000 0 6 -- Chart
1960 8 12 18 43.2 153.8 1000 0 6 -- Chart
1960 8 13 00 42.5 158.6 1000 0 6 -- Chart
Japan Meteorological Agency Best Track Data | Correction Date : 2013-03-19
< Typhoon 196010 1960 Season Typhoon 196012 >

Help